Aérodrome :
LOGIN :

S'inscrire | Disclaimer

   EN    FR    IT 

 










Légende :    VFR   VFR Marginal   IFR   IFR Intensif   IFR Très Intensif
Visi : 
Plafond : 
>= 8 km
>= 3000ft
5 à 8 km
1000 à 3000 ft
1500m à 5 km
500 à 1000 ft
800 à 1500m
200 à 500 ft
< 800m
< 200 ft
Symboles :   Orages  Brouillard  Fortes neiges  Fortes précipitations  Vent > 20 kt
SIGMETs :   Divers  Orages  Givrage  Turbulence  Onde Orograph.  Cendres Volcan.






- Altitude de l'aérodrome : 616 ft
- Code IATA : PUF


LFBP - Pau

DERNIER METAR :
  • 061100Z AUTO 14004KT 100V170 CAVOK 10/07 Q1023 TEMPO OVC010

METARs EXPIRÉS :
  • 061030Z AUTO 12005KT 090V150 9999 FEW004 09/07 Q1024 TEMPO OVC010
  • 061000Z AUTO 14006KT 110V170 4000 BR OVC003 07/07 Q1024 BECMG 6000 NSW OVC010
  • 060930Z AUTO 14006KT 3300 BR OVC003 07/07 Q1024 BECMG 6000 NSW OVC010
  • 060900Z AUTO 12005KT 3800 BR OVC004 07/07 Q1024 BECMG 5000 NSW OVC010
  • 060830Z AUTO 15006KT 5000 BR BKN005 07/07 Q1024 BECMG OVC010

TAF AMD TAF LFBP
Valide du 06 à 10h jusqu'au 07 à 06h UTC


061022Z 0610/0706 VRB03KT 6000 OVC010
PROB40
TEMPO 0610/0611 3000 BR OVC003
BECMG 0612/0614 CAVOK
BECMG 0700/0703 BKN040
PROB30 0703/0706 2000 BR BKN010



MET'MAP, la Météo Aéronautique d'un coup d'oeil ! - Copyright ORBIFLY Décembre 2007 - Disclaimer

ORBIFLY MET'MAP TEAM :

Programmation & Développement : Alexandra Zaïnal
Sur une idée originale de : Baudouin d'Aumeries
Assistance à la programmation : Marc-Olivier Méhu
Soutien technique & logistique : Manuel Goepfert

Contact : metmap@orbifly.com




SOURCES & CREDITS :

   NOAA